createdAt,value
2023-03-27T00:01:58.258Z,111.05
2023-03-27T00:04:27.222Z,101.05
2023-03-27T00:06:56.013Z,102.75
2023-03-27T00:09:24.884Z,99.60
2023-03-27T00:11:53.684Z,97.28
2023-03-27T00:14:22.893Z,92.38
2023-03-27T00:16:51.947Z,89.38
2023-03-27T00:19:20.951Z,95.72
2023-03-27T00:21:49.696Z,91.32
2023-03-27T00:24:18.833Z,91.75
2023-03-27T00:26:47.563Z,91.68
2023-03-27T00:29:16.588Z,87.32
2023-03-27T00:31:45.419Z,88.50
2023-03-27T00:34:14.625Z,89.55
2023-03-27T00:36:44.631Z,89.15
2023-03-27T00:39:14.270Z,91.72
2023-03-27T00:41:43.569Z,93.15
2023-03-27T00:44:28.303Z,96.00
2023-03-27T00:46:58.116Z,96.45
2023-03-27T00:49:30.466Z,100.38
2023-03-27T00:52:00.837Z,99.43
2023-03-27T00:54:35.734Z,97.95
2023-03-27T00:57:10.197Z,100.07
2023-03-27T00:59:43.339Z,94.90
2023-03-27T01:02:16.741Z,95.32
2023-03-27T01:04:51.028Z,104.72
2023-03-27T01:07:23.304Z,100.25
2023-03-27T01:09:54.550Z,96.57
2023-03-27T01:12:48.139Z,92.60
2023-03-27T01:15:49.589Z,93.22
2023-03-27T01:18:46.994Z,97.68
2023-03-27T01:21:35.607Z,98.28
2023-03-27T01:24:20.533Z,92.13
2023-03-27T01:26:53.966Z,93.95
2023-03-27T01:29:33.039Z,95.95
2023-03-27T01:32:33.079Z,93.03
2023-03-27T01:35:26.168Z,100.18
2023-03-27T01:41:00.207Z,90.60
2023-03-27T01:43:54.313Z,90.65
2023-03-27T01:46:43.906Z,89.10
2023-03-27T01:49:31.106Z,87.05
2023-03-27T01:52:11.050Z,72.18
2023-03-27T01:54:52.035Z,68.30
2023-03-27T01:57:36.879Z,67.40
2023-03-27T02:00:25.355Z,65.28
2023-03-27T02:03:21.657Z,62.15
2023-03-27T02:06:16.794Z,60.70
2023-03-27T02:09:22.680Z,60.50
2023-03-27T02:12:09.716Z,62.75
2023-03-27T02:14:51.044Z,58.70
2023-03-27T02:17:27.105Z,55.50
2023-03-27T02:20:03.532Z,49.65
2023-03-27T02:22:37.661Z,54.25
2023-03-27T02:25:27.715Z,56.53
2023-03-27T02:28:38.204Z,57.45
2023-03-27T02:31:34.102Z,60.17
2023-03-27T02:34:58.014Z,61.05
2023-03-27T02:37:39.305Z,60.53
2023-03-27T02:40:45.988Z,62.22
2023-03-27T02:44:09.491Z,60.05
2023-03-27T02:47:14.014Z,57.20
2023-03-27T02:49:50.025Z,59.88
2023-03-27T02:52:32.258Z,50.78
2023-03-27T02:55:07.873Z,50.85
2023-03-27T02:57:40.220Z,53.42
2023-03-27T03:00:34.801Z,49.00
2023-03-27T03:03:28.726Z,52.53
2023-03-27T03:06:08.168Z,49.80
2023-03-27T03:08:39.409Z,47.97
2023-03-27T03:11:14.348Z,48.30
2023-03-27T03:13:43.518Z,43.72
2023-03-27T03:16:12.473Z,48.17
2023-03-27T03:18:41.800Z,47.92
2023-03-27T03:21:10.684Z,47.08
2023-03-27T03:23:40.200Z,47.15
2023-03-27T03:26:09.637Z,47.20
2023-03-27T03:29:00.852Z,49.03
2023-03-27T03:31:44.202Z,47.55
2023-03-27T03:34:23.438Z,44.33
2023-03-27T03:36:56.137Z,44.85
2023-03-27T03:39:31.039Z,43.78
2023-03-27T03:42:00.028Z,41.40
2023-03-27T03:44:28.879Z,40.47
2023-03-27T03:46:59.181Z,45.13
2023-03-27T03:49:28.171Z,50.85
2023-03-27T03:52:03.627Z,50.70
2023-03-27T03:54:34.677Z,57.47
2023-03-27T03:57:04.143Z,54.67
2023-03-27T03:59:35.183Z,59.20
2023-03-27T04:02:30.370Z,56.85
2023-03-27T04:05:09.528Z,65.30
2023-03-27T04:07:41.823Z,56.85
2023-03-27T04:10:30.639Z,50.20
2023-03-27T04:13:01.835Z,59.38
2023-03-27T04:15:38.657Z,52.80
2023-03-27T04:18:31.195Z,48.15
2023-03-27T04:21:03.443Z,44.25
2023-03-27T04:23:32.517Z,40.35
2023-03-27T04:26:04.838Z,36.65
2023-03-27T04:29:03.268Z,38.08
2023-03-27T04:32:07.388Z,31.10
2023-03-27T04:34:42.995Z,26.02
2023-03-27T04:37:32.245Z,37.17
2023-03-27T04:40:18.849Z,38.58
2023-03-27T04:42:48.028Z,31.23
2023-03-27T04:45:21.109Z,31.48
2023-03-27T04:47:52.498Z,30.45
2023-03-27T04:50:22.506Z,29.95
2023-03-27T04:52:52.841Z,29.50
2023-03-27T04:55:26.705Z,25.85
2023-03-27T04:57:58.393Z,20.20
2023-03-27T05:00:28.729Z,18.33
2023-03-27T05:03:30.057Z,21.38
2023-03-27T05:06:09.421Z,20.60
2023-03-27T05:08:39.247Z,18.40
2023-03-27T05:11:08.752Z,19.88
2023-03-27T05:13:42.701Z,11.50
2023-03-27T05:16:13.243Z,9.27
2023-03-27T05:18:46.971Z,11.07
2023-03-27T05:21:15.870Z,10.40
2023-03-27T05:23:44.944Z,11.55
2023-03-27T05:26:14.149Z,10.80
2023-03-27T05:28:52.225Z,7.88
2023-03-27T05:31:21.413Z,7.60
2023-03-27T05:33:56.579Z,6.15
2023-03-27T05:36:29.448Z,8.75
2023-03-27T05:38:59.524Z,9.30
2023-03-27T05:41:42.203Z,7.85
2023-03-27T05:44:11.396Z,10.40
2023-03-27T05:49:18.841Z,14.40
2023-03-27T05:51:53.642Z,14.27
2023-03-27T05:54:22.871Z,13.88
2023-03-27T05:56:57.482Z,13.35
2023-03-27T05:59:27.477Z,10.52
2023-03-27T06:02:02.864Z,12.15
2023-03-27T06:04:46.081Z,15.68
2023-03-27T06:07:27.693Z,12.90
2023-03-27T06:10:02.481Z,13.85
2023-03-27T06:12:31.436Z,12.93
2023-03-27T06:15:12.412Z,13.98
2023-03-27T06:17:49.266Z,12.10
2023-03-27T06:20:20.947Z,13.98
2023-03-27T06:23:04.572Z,13.48
2023-03-27T06:25:39.812Z,13.57
2023-03-27T06:28:12.460Z,15.07
2023-03-27T06:30:50.893Z,12.18
2023-03-27T06:33:33.943Z,12.95
2023-03-27T06:36:07.007Z,18.25
2023-03-27T06:38:38.490Z,11.98
2023-03-27T06:41:07.606Z,14.90
2023-03-27T06:44:09.089Z,14.55
2023-03-27T06:47:03.288Z,16.95
2023-03-27T06:49:48.790Z,17.27
2023-03-27T06:52:23.222Z,16.02
2023-03-27T06:54:53.942Z,16.35
2023-03-27T06:57:23.128Z,19.60
2023-03-27T06:59:58.112Z,16.98
2023-03-27T07:02:58.914Z,18.95
2023-03-27T07:05:49.868Z,18.00
2023-03-27T07:08:24.485Z,14.38
2023-03-27T07:11:10.678Z,14.95
2023-03-27T07:13:54.374Z,17.55
2023-03-27T07:16:28.051Z,16.55
2023-03-27T07:19:01.204Z,16.38
2023-03-27T07:21:33.189Z,18.05
2023-03-27T07:24:02.673Z,15.65
2023-03-27T07:26:37.851Z,14.18
2023-03-27T07:29:23.196Z,14.35
2023-03-27T07:31:58.911Z,16.88
2023-03-27T07:34:35.992Z,15.77
2023-03-27T07:37:07.844Z,18.08
2023-03-27T07:39:39.892Z,17.25
2023-03-27T07:42:11.992Z,17.27
2023-03-27T07:45:01.360Z,18.38
2023-03-27T07:47:33.514Z,14.98
2023-03-27T07:50:13.746Z,17.27
2023-03-27T07:52:48.414Z,17.02
2023-03-27T07:55:19.871Z,17.30
2023-03-27T07:58:03.216Z,16.67
2023-03-27T08:00:40.797Z,16.98
2023-03-27T08:03:16.167Z,17.88
2023-03-27T08:06:00.964Z,16.38
2023-03-27T08:08:34.052Z,15.02
2023-03-27T08:11:06.192Z,17.40
2023-03-27T08:13:41.116Z,13.90
2023-03-27T08:16:15.868Z,15.18
2023-03-27T08:18:48.001Z,13.68
2023-03-27T08:21:18.436Z,14.73
2023-03-27T08:23:51.723Z,15.85
2023-03-27T08:26:30.068Z,14.88
2023-03-27T08:29:03.014Z,14.85
2023-03-27T08:31:34.412Z,15.20
2023-03-27T08:37:00.752Z,14.25
2023-03-27T08:39:49.722Z,14.00
2023-03-27T08:42:30.921Z,15.40
2023-03-27T08:45:21.924Z,15.30
2023-03-27T08:48:03.779Z,14.65
2023-03-27T08:50:38.932Z,15.25
2023-03-27T08:56:06.150Z,12.13
2023-03-27T08:58:40.237Z,13.85
2023-03-27T09:01:41.988Z,13.90
2023-03-27T09:04:37.544Z,9.45
2023-03-27T09:10:16.250Z,9.88
2023-03-27T09:13:05.696Z,9.88
2023-03-27T09:15:42.986Z,10.40
2023-03-27T09:18:22.322Z,12.32
2023-03-27T09:21:04.518Z,11.73
2023-03-27T09:23:55.406Z,11.25
2023-03-27T09:27:06.707Z,13.75
2023-03-27T09:29:50.858Z,12.60
2023-03-27T09:32:45.925Z,12.30
2023-03-27T09:35:16.523Z,12.43
2023-03-27T09:37:47.548Z,11.80
2023-03-27T09:40:44.081Z,12.95
2023-03-27T09:43:24.590Z,12.20
2023-03-27T09:45:56.076Z,12.85
2023-03-27T09:48:58.372Z,12.85
2023-03-27T09:51:37.390Z,12.77
2023-03-27T09:54:08.959Z,16.05
2023-03-27T09:56:45.454Z,13.73
2023-03-27T09:59:59.595Z,13.93
2023-03-27T10:02:32.041Z,12.75
2023-03-27T10:05:23.009Z,12.47
2023-03-27T10:07:56.491Z,14.00
2023-03-27T10:10:46.669Z,14.15
2023-03-27T10:13:30.695Z,13.75
2023-03-27T10:16:07.942Z,13.10
2023-03-27T10:18:58.345Z,14.57
2023-03-27T10:21:40.460Z,13.32
2023-03-27T10:24:19.394Z,12.68
2023-03-27T10:27:24.321Z,14.43
2023-03-27T10:30:34.476Z,13.55
2023-03-27T10:33:43.312Z,14.60
2023-03-27T10:36:48.048Z,13.98
2023-03-27T10:39:21.749Z,14.38
2023-03-27T10:42:14.651Z,17.00
2023-03-27T10:44:50.151Z,19.90
2023-03-27T10:47:33.886Z,16.15
2023-03-27T10:50:34.565Z,12.40
2023-03-27T10:53:21.831Z,14.18
2023-03-27T10:56:06.994Z,12.40
2023-03-27T10:58:48.652Z,9.95
2023-03-27T11:01:45.757Z,11.63
2023-03-27T11:04:39.441Z,10.40
2023-03-27T11:07:18.828Z,10.40
2023-03-27T11:10:03.971Z,10.65
2023-03-27T11:12:38.936Z,10.43
2023-03-27T11:15:27.299Z,12.18
2023-03-27T11:18:04.071Z,12.23
2023-03-27T11:20:53.465Z,12.93
2023-03-27T11:23:39.458Z,14.00
2023-03-27T11:26:37.758Z,14.10
2023-03-27T11:29:36.702Z,13.15
2023-03-27T11:32:20.902Z,10.00
2023-03-27T11:35:03.940Z,8.82
2023-03-27T11:37:57.296Z,9.98
2023-03-27T11:40:50.368Z,10.82
2023-03-27T11:43:21.309Z,10.52
2023-03-27T11:46:29.807Z,11.07
2023-03-27T11:49:27.197Z,11.98
2023-03-27T11:52:27.947Z,12.30
2023-03-27T11:55:18.325Z,10.82
2023-03-27T11:58:01.121Z,11.52
2023-03-27T12:01:09.022Z,11.68
2023-03-27T12:04:15.039Z,11.35
2023-03-27T12:07:04.918Z,9.43
2023-03-27T12:10:07.171Z,11.45
2023-03-27T12:13:42.222Z,10.88
2023-03-27T12:16:23.233Z,10.77
2023-03-27T12:19:38.486Z,12.25
2023-03-27T12:22:43.216Z,11.57
2023-03-27T12:25:29.335Z,13.25
2023-03-27T12:28:25.095Z,12.50
2023-03-27T12:31:42.946Z,12.45
2023-03-27T12:34:33.162Z,14.38
2023-03-27T12:37:04.639Z,17.15
2023-03-27T12:39:44.949Z,20.77
2023-03-27T12:42:16.391Z,19.10
2023-03-27T12:45:15.360Z,19.95
2023-03-27T12:48:08.944Z,21.23
2023-03-27T12:50:56.602Z,24.17
2023-03-27T12:53:27.728Z,21.85
2023-03-27T12:56:20.398Z,22.40
2023-03-27T12:58:54.001Z,20.38
2023-03-27T13:01:51.616Z,18.88
2023-03-27T13:04:47.704Z,16.23
2023-03-27T13:07:37.698Z,17.60
2023-03-27T13:10:28.307Z,14.05
2023-03-27T13:13:10.136Z,12.63
2023-03-27T13:15:44.875Z,18.75
2023-03-27T13:19:00.482Z,27.73
2023-03-27T13:21:46.825Z,18.45
2023-03-27T13:24:38.893Z,19.33
2023-03-27T13:27:34.027Z,12.77
2023-03-27T13:30:04.847Z,12.82
2023-03-27T13:33:25.084Z,16.05
2023-03-27T13:36:01.129Z,15.95
2023-03-27T13:39:16.132Z,10.82
2023-03-27T13:42:23.878Z,8.18
2023-03-27T13:45:07.049Z,8.27
2023-03-27T13:48:05.399Z,7.78
2023-03-27T13:50:55.837Z,6.78
2023-03-27T13:53:52.818Z,6.63
2023-03-27T13:56:53.189Z,9.02
2023-03-27T14:00:11.192Z,8.90
2023-03-27T14:02:54.695Z,7.95
2023-03-27T14:06:04.120Z,7.55
2023-03-27T14:09:01.189Z,6.30
2023-03-27T14:12:03.497Z,7.82
2023-03-27T14:15:16.989Z,7.78
2023-03-27T14:18:27.895Z,9.68
2023-03-27T14:21:04.977Z,10.32
2023-03-27T14:26:36.410Z,11.88
2023-03-27T14:29:06.028Z,11.38
2023-03-27T14:31:45.078Z,13.40
2023-03-27T14:34:25.759Z,12.65
2023-03-27T14:37:31.468Z,17.88
2023-03-27T14:40:21.899Z,21.27
2023-03-27T14:42:53.533Z,25.67
2023-03-27T14:45:28.236Z,24.58
2023-03-27T14:48:03.827Z,38.88
2023-03-27T14:50:43.562Z,36.85
2023-03-27T14:53:18.201Z,27.23
2023-03-27T14:56:17.068Z,18.95
2023-03-27T14:59:18.915Z,36.60
2023-03-27T15:01:55.816Z,37.83
2023-03-27T15:04:28.092Z,36.13
2023-03-27T15:07:16.373Z,27.38
2023-03-27T15:10:07.306Z,22.00
2023-03-27T15:12:55.353Z,22.15
2023-03-27T15:15:41.022Z,20.70
2023-03-27T15:18:26.777Z,41.33
2023-03-27T15:20:57.900Z,63.17
2023-03-27T15:26:10.644Z,26.90
2023-03-27T15:28:59.512Z,20.90
2023-03-27T15:31:31.032Z,23.58
2023-03-27T15:34:11.561Z,24.98
2023-03-27T15:36:44.036Z,22.67
2023-03-27T15:39:22.651Z,22.88
2023-03-27T15:41:54.066Z,21.45
2023-03-27T15:44:26.803Z,20.58
2023-03-27T15:49:38.851Z,18.65
2023-03-27T15:52:33.264Z,20.45
2023-03-27T15:55:04.038Z,27.92
2023-03-27T15:57:33.190Z,33.90
2023-03-27T16:00:09.696Z,33.33
2023-03-27T16:02:42.037Z,40.15
2023-03-27T16:05:19.262Z,40.75
2023-03-27T16:07:49.973Z,40.50
2023-03-27T16:10:34.885Z,43.17
2023-03-27T16:13:07.338Z,42.58
2023-03-27T16:15:43.435Z,42.67
2023-03-27T16:18:25.438Z,44.08
2023-03-27T16:20:54.707Z,41.78
2023-03-27T16:23:23.715Z,42.85
2023-03-27T16:25:52.565Z,46.03
2023-03-27T16:28:21.364Z,44.05
2023-03-27T16:30:50.787Z,42.65
2023-03-27T16:33:23.398Z,42.28
2023-03-27T16:35:53.129Z,44.05
2023-03-27T16:38:22.556Z,43.03
2023-03-27T16:40:51.830Z,45.58
2023-03-27T16:43:20.519Z,46.22
2023-03-27T16:45:49.882Z,43.92
2023-03-27T16:48:18.616Z,48.45
2023-03-27T16:50:47.635Z,52.55
2023-03-27T16:53:16.404Z,54.70
2023-03-27T16:55:45.712Z,53.45
2023-03-27T16:58:15.057Z,56.13
2023-03-27T17:00:44.064Z,60.90
2023-03-27T17:03:13.147Z,57.22
2023-03-27T17:05:44.948Z,61.45
2023-03-27T17:08:17.286Z,57.97
2023-03-27T17:13:15.104Z,46.97
2023-03-27T17:15:44.304Z,50.85
2023-03-27T17:18:13.298Z,51.75
2023-03-27T17:20:42.766Z,52.58
2023-03-27T17:23:12.840Z,50.85
2023-03-27T17:25:43.225Z,51.53
2023-03-27T17:28:12.934Z,54.65
2023-03-27T17:30:56.603Z,52.97
2023-03-27T17:33:30.748Z,63.15
2023-03-27T17:35:59.753Z,60.72
2023-03-27T17:38:29.166Z,53.53
2023-03-27T17:40:58.859Z,47.63
2023-03-27T17:43:28.666Z,49.13
2023-03-27T17:45:57.694Z,47.95
2023-03-27T17:48:27.108Z,54.15
2023-03-27T17:51:08.054Z,63.42
2023-03-27T17:53:39.612Z,55.28
2023-03-27T17:56:09.268Z,47.72
2023-03-27T17:58:38.423Z,44.40
2023-03-27T18:01:20.644Z,45.15
2023-03-27T18:03:50.261Z,43.30
2023-03-27T18:06:19.788Z,45.33
2023-03-27T18:08:48.788Z,43.35
2023-03-27T18:11:17.897Z,47.05
2023-03-27T18:13:52.246Z,47.78
2023-03-27T18:16:22.591Z,44.28
2023-03-27T18:18:53.584Z,45.90
2023-03-27T18:21:23.019Z,53.45
2023-03-27T18:23:53.857Z,48.55
2023-03-27T18:26:23.074Z,46.13
2023-03-27T18:28:53.231Z,51.38
2023-03-27T18:31:22.243Z,52.03
2023-03-27T18:33:51.148Z,50.08
2023-03-27T18:36:20.181Z,39.35
2023-03-27T18:38:49.785Z,36.55
2023-03-27T18:41:18.905Z,40.38
2023-03-27T18:43:47.799Z,35.88
2023-03-27T18:46:19.694Z,36.95
2023-03-27T18:48:51.752Z,37.53
2023-03-27T18:51:20.773Z,37.28
2023-03-27T18:53:51.710Z,34.00
2023-03-27T18:56:20.619Z,38.20
2023-03-27T18:58:49.367Z,42.45
2023-03-27T19:01:18.587Z,37.80
2023-03-27T19:03:47.984Z,44.28
2023-03-27T19:06:20.533Z,37.40
2023-03-27T19:08:49.780Z,40.60
2023-03-27T19:11:19.739Z,35.72
2023-03-27T19:14:07.793Z,34.22
2023-03-27T19:17:06.700Z,33.20
2023-03-27T19:19:55.960Z,29.38
2023-03-27T19:22:47.829Z,30.55
2023-03-27T19:25:28.597Z,29.17
2023-03-27T19:27:57.582Z,32.13
2023-03-27T19:30:26.529Z,32.75
2023-03-27T19:32:56.736Z,30.85
2023-03-27T19:35:26.698Z,25.98
2023-03-27T19:37:55.410Z,29.73
2023-03-27T19:40:24.957Z,26.88
2023-03-27T19:42:53.964Z,28.00
2023-03-27T19:45:22.847Z,28.02
2023-03-27T19:47:51.902Z,30.05
2023-03-27T19:50:20.851Z,30.27
2023-03-27T19:53:08.469Z,30.98
2023-03-27T19:55:38.615Z,30.50
2023-03-27T19:58:07.576Z,34.55
2023-03-27T20:00:40.810Z,32.95
2023-03-27T20:03:11.477Z,32.40
2023-03-27T20:05:49.368Z,33.08
2023-03-27T20:08:20.465Z,31.67
2023-03-27T20:10:51.236Z,31.05
2023-03-27T20:15:54.223Z,30.40
2023-03-27T20:18:24.601Z,33.63
2023-03-27T20:23:34.334Z,33.30
2023-03-27T20:26:04.500Z,36.45
2023-03-27T20:28:37.926Z,40.05
2023-03-27T20:31:08.807Z,39.35
2023-03-27T20:33:38.984Z,43.60
2023-03-27T20:36:09.146Z,41.50
2023-03-27T20:38:38.944Z,44.83
2023-03-27T20:41:09.486Z,46.90
2023-03-27T20:43:40.356Z,58.20
2023-03-27T20:46:12.219Z,70.53
2023-03-27T20:48:54.132Z,75.80
2023-03-27T20:51:25.510Z,88.40
2023-03-27T20:53:58.941Z,97.72
2023-03-27T20:56:29.012Z,85.47
2023-03-27T20:58:58.759Z,95.10
2023-03-27T21:01:29.816Z,96.28
2023-03-27T21:04:03.362Z,100.25
2023-03-27T21:06:35.957Z,100.95
2023-03-27T21:09:07.095Z,103.75
2023-03-27T21:11:38.206Z,108.68
2023-03-27T21:14:08.363Z,97.57
2023-03-27T21:16:38.917Z,96.38
2023-03-27T21:19:08.950Z,92.07
2023-03-27T21:21:39.326Z,90.22
2023-03-27T21:24:09.283Z,88.32
2023-03-27T21:26:38.996Z,84.88
2023-03-27T21:29:11.934Z,85.57
2023-03-27T21:31:42.959Z,87.78
2023-03-27T21:34:12.636Z,86.18
2023-03-27T21:36:41.492Z,84.13
2023-03-27T21:39:11.781Z,89.88
2023-03-27T21:41:40.842Z,87.82
2023-03-27T21:44:09.630Z,101.47
2023-03-27T21:46:38.977Z,109.40
2023-03-27T21:49:07.900Z,111.97
2023-03-27T21:51:37.056Z,96.00
2023-03-27T21:54:06.091Z,92.75
2023-03-27T21:56:35.219Z,93.20
2023-03-27T21:59:03.969Z,96.97
2023-03-27T22:01:33.046Z,94.35
2023-03-27T22:04:03.132Z,96.78
2023-03-27T22:06:32.496Z,96.85
2023-03-27T22:09:01.562Z,99.53
2023-03-27T22:11:30.712Z,96.22
2023-03-27T22:14:00.160Z,97.60
2023-03-27T22:16:29.829Z,98.90
2023-03-27T22:18:58.791Z,97.18
2023-03-27T22:21:30.232Z,98.00
2023-03-27T22:24:00.548Z,98.72
2023-03-27T22:26:35.163Z,94.55
2023-03-27T22:29:05.080Z,92.85
2023-03-27T22:31:33.855Z,90.47
2023-03-27T22:34:05.240Z,92.43
2023-03-27T22:36:35.169Z,90.47
2023-03-27T22:39:04.092Z,98.88
2023-03-27T22:41:33.043Z,111.50
2023-03-27T22:44:02.679Z,119.80
2023-03-27T22:46:31.709Z,103.55
2023-03-27T22:49:00.679Z,93.30
2023-03-27T22:51:31.843Z,89.22
2023-03-27T22:54:01.168Z,111.88
2023-03-27T22:56:30.023Z,79.85
2023-03-27T22:58:59.217Z,91.65
2023-03-27T23:01:28.088Z,113.40
2023-03-27T23:03:57.345Z,151.88
2023-03-27T23:06:26.462Z,111.32
2023-03-27T23:08:55.588Z,84.43
2023-03-27T23:11:24.636Z,79.25
2023-03-27T23:13:53.611Z,73.28
2023-03-27T23:16:22.509Z,75.53
2023-03-27T23:18:51.598Z,80.00
2023-03-27T23:21:20.473Z,79.68
2023-03-27T23:23:49.641Z,70.32
2023-03-27T23:26:19.098Z,70.15
2023-03-27T23:28:48.329Z,102.72
2023-03-27T23:31:19.623Z,90.20
2023-03-27T23:33:51.643Z,78.43
2023-03-27T23:36:23.500Z,75.05
2023-03-27T23:38:53.811Z,74.38
2023-03-27T23:41:23.406Z,76.38
2023-03-27T23:43:52.437Z,74.22
2023-03-27T23:46:21.430Z,77.72
2023-03-27T23:48:50.374Z,76.88
2023-03-27T23:51:19.423Z,79.93
2023-03-27T23:53:48.111Z,86.47
2023-03-27T23:56:17.098Z,88.70
2023-03-27T23:58:45.965Z,80.15
